Time;durP1;ratioP1;P1;durP2;ratioP2;P2;SDS_P1;SDS_P2;PMS_P1;PMS_P2;Temp;Humidity;BMP_temperature;BMP_pressure;BME280_temperature;BME280_humidity;BME280_pressure;Samples;Min_cycle;Max_cycle;Signal;HPM_P1;HPM_P2
2022/10/31 00:02:54;;;;;;;117.10;108.15;;;;;;;;;;10165938;28;20107;-69
2022/10/31 00:07:53;;;;;;;114.63;106.32;;;;;;;;;;10165809;28;20040;-69
2022/10/31 00:12:51;;;;;;;121.25;112.18;;;;;;;;;;10163868;28;20476;-69
2022/10/31 00:17:47;;;;;;;112.10;104.22;;;;;;;;;;10166214;28;20062;-69
2022/10/31 00:22:43;;;;;;;115.10;107.10;;;;;;;;;;10164894;28;20042;-70
2022/10/31 00:27:39;;;;;;;114.22;105.95;;;;;;;;;;10170529;28;20050;-70
2022/10/31 00:32:35;;;;;;;112.03;103.85;;;;;;;;;;10154744;28;20493;-70
2022/10/31 00:37:32;;;;;;;114.93;107.03;;;;;;;;;;10167838;28;20060;-69
2022/10/31 00:42:28;;;;;;;116.10;108.07;;;;;;;;;;10160294;28;20047;-69
2022/10/31 00:47:24;;;;;;;110.45;103.10;;;;;;;;;;10160413;28;20042;-69
2022/10/31 00:52:20;;;;;;;106.20;98.72;;;;;;;;;;10159667;28;20034;-70
2022/10/31 00:57:16;;;;;;;108.15;99.95;;;;;;;;;;10156657;28;20050;-70
2022/10/31 01:02:13;;;;;;;109.90;101.78;;;;;;;;;;10163403;28;20522;-72
2022/10/31 01:07:11;;;;;;;112.72;104.75;;;;;;;;;;10161138;28;20042;-72
2022/10/31 01:12:07;;;;;;;113.93;105.10;;;;;;;;;;10156973;28;20042;-69
2022/10/31 01:17:03;;;;;;;103.32;95.70;;;;;;;;;;10170633;28;20053;-71
2022/10/31 01:22:00;;;;;;;100.68;93.30;;;;;;;;;;10152534;28;20061;-69
2022/10/31 01:26:56;;;;;;;96.85;88.82;;;;;;;;;;10162533;28;20511;-71
2022/10/31 01:31:52;;;;;;;93.88;86.05;;;;;;;;;;10171164;28;20037;-71
2022/10/31 01:36:50;;;;;;;93.75;85.78;;;;;;;;;;10168966;28;20129;-71
2022/10/31 01:41:48;;;;;;;89.95;81.85;;;;;;;;;;10161006;28;20129;-71
2022/10/31 01:46:51;;;;;;;87.72;78.45;;;;;;;;;;10167317;28;20122;-71
2022/10/31 01:51:50;;;;;;;90.72;82.13;;;;;;;;;;10152728;28;20076;-70
2022/10/31 01:56:49;;;;;;;96.50;86.53;;;;;;;;;;10160697;28;20523;-70
2022/10/31 02:01:45;;;;;;;96.85;87.85;;;;;;;;;;10160646;28;20053;-70
2022/10/31 02:07:01;;;;;;;99.32;90.20;;;;;;;;;;11233777;23;20486;-70
2022/10/31 02:11:58;;;;;;;100.50;91.32;;;;;;;;;;10145767;28;20046;-70
2022/10/31 02:16:54;;;;;;;101.30;91.90;;;;;;;;;;10145209;28;20039;-70
2022/10/31 02:22:02;;;;;;;103.03;93.93;;;;;;;;;;10144538;28;20423;-70
2022/10/31 02:27:08;;;;;;;108.55;97.80;;;;;;;;;;10140160;28;20046;-70
2022/10/31 02:32:11;;;;;;;107.85;97.68;;;;;;;;;;10143693;28;20046;-69
2022/10/31 02:37:13;;;;;;;109.65;100.05;;;;;;;;;;10134115;28;20069;-71
2022/10/31 02:42:16;;;;;;;112.75;102.03;;;;;;;;;;10147294;28;20060;-71
2022/10/31 02:47:12;;;;;;;;;;;;;;;;;;10154587;28;20042;-69
2022/10/31 02:52:18;;;;;;;107.70;97.10;;;;;;;;;;10137363;28;19922;-69
2022/10/31 02:57:16;;;;;;;108.28;98.13;;;;;;;;;;10142331;28;20420;-68
2022/10/31 03:02:22;;;;;;;103.65;94.40;;;;;;;;;;10149701;28;20047;-68
2022/10/31 03:07:37;;;;;;;107.43;97.35;;;;;;;;;;10142059;28;20093;-68
2022/10/31 03:12:33;;;;;;;108.03;97.85;;;;;;;;;;10139900;28;20514;-68
2022/10/31 03:17:35;;;;;;;104.47;94.93;;;;;;;;;;10144078;28;20038;-68
2022/10/31 03:22:32;;;;;;;102.77;93.63;;;;;;;;;;10141553;28;20057;-69
2022/10/31 03:27:30;;;;;;;106.43;96.90;;;;;;;;;;10141437;28;20061;-69
2022/10/31 03:32:36;;;;;;;107.78;98.15;;;;;;;;;;10152843;28;20042;-69
2022/10/31 03:37:33;;;;;;;103.53;93.95;;;;;;;;;;10149611;28;20057;-69
2022/10/31 03:42:31;;;;;;;106.80;97.03;;;;;;;;;;10148253;28;20545;-69
2022/10/31 03:47:28;;;;;;;104.53;94.38;;;;;;;;;;10145674;28;20039;-68
2022/10/31 03:52:37;;;;;;;106.97;96.78;;;;;;;;;;10150793;28;20519;-68
2022/10/31 03:57:37;;;;;;;104.63;94.15;;;;;;;;;;10144178;28;20047;-67
2022/10/31 04:02:34;;;;;;;104.25;94.20;;;;;;;;;;10144222;28;20038;-67
2022/10/31 04:07:33;;;;;;;101.72;92.25;;;;;;;;;;10140907;28;20042;-68
2022/10/31 04:12:30;;;;;;;103.97;94.18;;;;;;;;;;10153034;28;20755;-67
2022/10/31 04:17:29;;;;;;;99.00;89.28;;;;;;;;;;10149979;28;20042;-67
2022/10/31 04:22:25;;;;;;;106.32;95.53;;;;;;;;;;10143839;28;20454;-68
2022/10/31 04:27:21;;;;;;;100.45;91.28;;;;;;;;;;10134349;28;20053;-68
2022/10/31 04:32:18;;;;;;;103.50;93.47;;;;;;;;;;10149558;28;20677;-68
2022/10/31 04:37:14;;;;;;;107.32;96.78;;;;;;;;;;10144600;28;20050;-67
2022/10/31 04:42:10;;;;;;;104.35;93.88;;;;;;;;;;10140957;28;20696;-69
2022/10/31 04:47:06;;;;;;;108.13;97.47;;;;;;;;;;10138981;28;20046;-68
2022/10/31 04:52:03;;;;;;;102.38;91.72;;;;;;;;;;10141605;28;20046;-68
2022/10/31 04:56:59;;;;;;;98.28;88.43;;;;;;;;;;10143440;28;20536;-68
2022/10/31 05:01:55;;;;;;;101.13;90.55;;;;;;;;;;10151752;28;20081;-70
2022/10/31 05:06:52;;;;;;;102.75;92.07;;;;;;;;;;10135336;28;20168;-70
2022/10/31 05:11:48;;;;;;;102.20;91.70;;;;;;;;;;10142596;28;20051;-70
2022/10/31 05:16:44;;;;;;;99.00;88.47;;;;;;;;;;10145580;28;20046;-70
2022/10/31 05:21:40;;;;;;;96.80;85.97;;;;;;;;;;10152758;28;20519;-69
2022/10/31 05:26:36;;;;;;;97.75;87.38;;;;;;;;;;10150534;28;20050;-69
2022/10/31 05:31:33;;;;;;;101.78;90.90;;;;;;;;;;10144029;28;20058;-68
2022/10/31 05:36:29;;;;;;;97.72;87.43;;;;;;;;;;10141341;28;20034;-68
2022/10/31 05:41:25;;;;;;;97.93;87.32;;;;;;;;;;10143285;28;20516;-68
2022/10/31 05:46:21;;;;;;;101.75;91.13;;;;;;;;;;10147839;28;20114;-69
2022/10/31 05:51:18;;;;;;;106.70;95.57;;;;;;;;;;10144542;28;20050;-68
2022/10/31 05:56:14;;;;;;;101.05;89.97;;;;;;;;;;10145870;28;20542;-69
2022/10/31 06:01:10;;;;;;;102.40;91.45;;;;;;;;;;10146254;28;20061;-68
2022/10/31 06:06:07;;;;;;;99.95;89.75;;;;;;;;;;10141097;28;20046;-69
2022/10/31 06:11:03;;;;;;;104.28;91.47;;;;;;;;;;10143721;28;20042;-69
2022/10/31 06:15:59;;;;;;;108.13;95.75;;;;;;;;;;10142912;28;20047;-70
2022/10/31 06:20:55;;;;;;;98.75;88.45;;;;;;;;;;10128347;28;20049;-68
2022/10/31 06:25:52;;;;;;;104.35;88.57;;;;;;;;;;10130109;28;20732;-69
2022/10/31 06:30:48;;;;;;;101.25;90.05;;;;;;;;;;10127638;28;20056;-69
2022/10/31 06:35:45;;;;;;;103.78;89.10;;;;;;;;;;10122824;28;20052;-69
2022/10/31 06:40:41;;;;;;;109.28;92.53;;;;;;;;;;10134351;28;20594;-69
2022/10/31 06:45:38;;;;;;;114.05;94.00;;;;;;;;;;10129686;28;20050;-69
2022/10/31 06:50:34;;;;;;;103.72;92.20;;;;;;;;;;10137741;28;20497;-68
2022/10/31 06:55:30;;;;;;;104.38;90.97;;;;;;;;;;10141119;28;20047;-69
2022/10/31 07:00:27;;;;;;;100.10;89.45;;;;;;;;;;10133310;28;20038;-69
2022/10/31 07:05:24;;;;;;;101.93;90.97;;;;;;;;;;10128462;28;20050;-67
2022/10/31 07:10:20;;;;;;;99.93;89.63;;;;;;;;;;10124362;28;20053;-70
2022/10/31 07:15:17;;;;;;;101.40;91.43;;;;;;;;;;10138991;28;20046;-70
2022/10/31 07:20:13;;;;;;;103.13;92.13;;;;;;;;;;10125931;28;20061;-70
2022/10/31 07:25:09;;;;;;;103.90;93.45;;;;;;;;;;10128840;28;20050;-70
2022/10/31 07:30:06;;;;;;;110.18;99.35;;;;;;;;;;10140499;28;20050;-70
2022/10/31 07:35:03;;;;;;;106.78;96.15;;;;;;;;;;10140318;28;20062;-72
2022/10/31 07:39:59;;;;;;;107.45;97.15;;;;;;;;;;10143596;28;20053;-71
2022/10/31 07:44:55;;;;;;;106.50;96.25;;;;;;;;;;10133577;28;20604;-71
2022/10/31 07:49:53;;;;;;;109.35;98.68;;;;;;;;;;10136700;28;20500;-71
2022/10/31 07:54:49;;;;;;;103.75;94.07;;;;;;;;;;10144762;28;20047;-71
2022/10/31 07:59:45;;;;;;;105.13;95.50;;;;;;;;;;10158578;28;20050;-71
2022/10/31 08:04:41;;;;;;;98.78;88.95;;;;;;;;;;10137535;28;20509;-71
2022/10/31 08:09:38;;;;;;;99.70;90.75;;;;;;;;;;10136818;28;20058;-71
2022/10/31 08:14:34;;;;;;;99.18;90.03;;;;;;;;;;10131971;28;20043;-71
2022/10/31 08:19:30;;;;;;;104.53;94.13;;;;;;;;;;10128724;28;20042;-69
2022/10/31 08:24:26;;;;;;;100.18;90.93;;;;;;;;;;10136661;28;20046;-69
2022/10/31 08:29:23;;;;;;;101.85;92.68;;;;;;;;;;10136187;28;20041;-69
2022/10/31 08:34:19;;;;;;;101.07;91.50;;;;;;;;;;10140215;28;20057;-71
2022/10/31 08:39:15;;;;;;;103.57;93.85;;;;;;;;;;10137741;28;20046;-71
2022/10/31 08:44:12;;;;;;;103.22;94.10;;;;;;;;;;10144293;28;20048;-71
2022/10/31 08:49:08;;;;;;;104.43;94.43;;;;;;;;;;10140740;28;20046;-71
2022/10/31 08:54:04;;;;;;;105.57;96.30;;;;;;;;;;10135053;28;20046;-71
2022/10/31 08:59:01;;;;;;;105.32;96.53;;;;;;;;;;10139559;28;20081;-71
2022/10/31 09:03:57;;;;;;;103.25;94.10;;;;;;;;;;10128404;28;20042;-70
2022/10/31 09:08:53;;;;;;;107.38;97.90;;;;;;;;;;10141933;28;20050;-71
2022/10/31 09:13:51;;;;;;;95.28;87.57;;;;;;;;;;10147037;28;20046;-71
2022/10/31 09:18:47;;;;;;;97.25;88.60;;;;;;;;;;10132924;28;20060;-70
2022/10/31 09:23:44;;;;;;;103.05;94.13;;;;;;;;;;10127076;28;20051;-70
2022/10/31 09:28:40;;;;;;;105.90;96.97;;;;;;;;;;10131206;28;20045;-70
2022/10/31 09:33:37;;;;;;;102.82;94.45;;;;;;;;;;10129403;28;20092;-69
2022/10/31 09:38:33;;;;;;;104.30;95.85;;;;;;;;;;10136158;28;20053;-70
2022/10/31 09:43:35;;;;;;;109.70;100.82;;;;;;;;;;10131937;28;20051;-70
2022/10/31 09:48:34;;;;;;;106.88;98.50;;;;;;;;;;10126092;28;20110;-70
2022/10/31 09:53:42;;;;;;;103.78;95.50;;;;;;;;;;10123088;28;20054;-70
2022/10/31 09:58:41;;;;;;;102.70;95.32;;;;;;;;;;10125852;28;20584;-70
2022/10/31 10:03:42;;;;;;;102.50;95.03;;;;;;;;;;10128171;28;20050;-70
2022/10/31 10:08:38;;;;;;;98.43;91.45;;;;;;;;;;10113889;28;20042;-71
2022/10/31 10:13:37;;;;;;;81.78;75.53;;;;;;;;;;10127862;28;20049;-72
2022/10/31 10:18:42;;;;;;;78.40;72.80;;;;;;;;;;10132403;28;20578;-72
2022/10/31 10:23:39;;;;;;;78.45;72.60;;;;;;;;;;10132689;28;20050;-71
2022/10/31 10:28:38;;;;;;;75.82;70.30;;;;;;;;;;10125470;28;20034;-71
2022/10/31 10:33:50;;;;;;;70.25;65.32;;;;;;;;;;10132557;28;20542;-70
2022/10/31 10:38:55;;;;;;;72.32;67.07;;;;;;;;;;10129800;28;20050;-70
2022/10/31 10:43:51;;;;;;;69.25;64.32;;;;;;;;;;10130145;28;20057;-71
2022/10/31 10:48:48;;;;;;;68.20;63.17;;;;;;;;;;10138838;28;20044;-71
2022/10/31 10:54:00;;;;;;;63.53;58.78;;;;;;;;;;10128477;28;20051;-71
2022/10/31 10:59:03;;;;;;;67.10;61.80;;;;;;;;;;10125896;28;20042;-68
2022/10/31 11:04:01;;;;;;;65.47;60.22;;;;;;;;;;10126994;28;20054;-68
2022/10/31 11:09:07;;;;;;;61.65;56.83;;;;;;;;;;10118238;28;20058;-69
2022/10/31 11:14:11;;;;;;;47.60;44.08;;;;;;;;;;10125017;28;20042;-69
2022/10/31 11:19:21;;;;;;;46.55;42.83;;;;;;;;;;10127776;28;20046;-69
2022/10/31 11:24:18;;;;;;;42.53;39.35;;;;;;;;;;10143634;28;20039;-69
2022/10/31 11:29:15;;;;;;;49.20;45.17;;;;;;;;;;10139488;28;20046;-69
2022/10/31 11:34:14;;;;;;;51.38;47.28;;;;;;;;;;10145335;28;20734;-68
2022/10/31 11:39:16;;;;;;;53.88;49.88;;;;;;;;;;10143266;28;20038;-69
2022/10/31 11:44:20;;;;;;;63.33;58.67;;;;;;;;;;10140096;28;20046;-68
2022/10/31 11:49:36;;;;;;;72.93;67.65;;;;;;;;;;10143662;28;20441;-69
2022/10/31 11:54:42;;;;;;;68.22;63.08;;;;;;;;;;10147597;28;20045;-70
2022/10/31 11:59:38;;;;;;;55.33;50.75;;;;;;;;;;10139510;28;20038;-70
2022/10/31 12:04:38;;;;;;;50.17;45.67;;;;;;;;;;10144561;28;20050;-70
2022/10/31 12:09:35;;;;;;;45.40;41.30;;;;;;;;;;10144403;28;20038;-69
2022/10/31 12:14:50;;;;;;;53.15;48.45;;;;;;;;;;10143496;28;20046;-70
2022/10/31 12:20:12;;;;;;;54.10;49.40;;;;;;;;;;10145115;28;20057;-70
2022/10/31 12:25:29;;;;;;;49.40;44.38;;;;;;;;;;10142199;28;20523;-70
2022/10/31 12:30:49;;;;;;;45.55;40.97;;;;;;;;;;10120017;28;20062;-70
2022/10/31 12:35:50;;;;;;;46.03;38.55;;;;;;;;;;10130285;28;20053;-70
2022/10/31 12:41:25;;;;;;;41.47;36.97;;;;;;;;;;10147920;28;20464;-70
2022/10/31 12:46:40;;;;;;;37.40;33.65;;;;;;;;;;10061884;28;20583;-70
2022/10/31 12:51:37;;;;;;;42.65;36.92;;;;;;;;;;10124167;28;20050;-70
2022/10/31 12:56:36;;;;;;;45.95;38.83;;;;;;;;;;10145052;28;20049;-70
2022/10/31 13:01:34;;;;;;;45.28;40.67;;;;;;;;;;10136900;28;20060;-70
2022/10/31 13:06:34;;;;;;;50.10;45.63;;;;;;;;;;10141095;28;20670;-70
2022/10/31 13:11:46;;;;;;;50.28;45.08;;;;;;;;;;10125182;28;20125;-71
2022/10/31 13:16:45;;;;;;;49.92;45.63;;;;;;;;;;10137330;28;20050;-69
2022/10/31 13:21:48;;;;;;;51.20;46.50;;;;;;;;;;10137388;28;20141;-69
2022/10/31 13:26:49;;;;;;;48.47;44.20;;;;;;;;;;10136220;28;20386;-70
2022/10/31 13:31:46;;;;;;;51.15;46.85;;;;;;;;;;10141991;28;20531;-74
2022/10/31 13:36:50;;;;;;;57.13;52.42;;;;;;;;;;10143402;28;20419;-69
2022/10/31 13:41:46;;;;;;;62.88;57.75;;;;;;;;;;10137185;28;20050;-69
2022/10/31 13:46:43;;;;;;;53.85;49.40;;;;;;;;;;10147423;28;20066;-69
2022/10/31 13:51:39;;;;;;;41.20;37.50;;;;;;;;;;10138254;28;20520;-69
2022/10/31 13:56:36;;;;;;;35.80;32.33;;;;;;;;;;10145153;28;20050;-69
2022/10/31 14:01:33;;;;;;;32.97;29.88;;;;;;;;;;10130366;28;20043;-68
2022/10/31 14:06:38;;;;;;;33.63;30.25;;;;;;;;;;10142792;28;20053;-68
2022/10/31 14:11:34;;;;;;;29.73;26.83;;;;;;;;;;10138858;28;20503;-69
2022/10/31 14:16:37;;;;;;;32.97;29.67;;;;;;;;;;10133988;28;20049;-70
2022/10/31 14:21:43;;;;;;;32.05;29.17;;;;;;;;;;10145827;28;20057;-68
2022/10/31 14:26:39;;;;;;;31.67;28.77;;;;;;;;;;10138283;28;20053;-68
2022/10/31 14:31:37;;;;;;;35.45;32.00;;;;;;;;;;10133949;28;20046;-68
2022/10/31 14:36:45;;;;;;;34.40;31.50;;;;;;;;;;10131676;28;20492;-68
2022/10/31 14:41:55;;;;;;;41.92;38.00;;;;;;;;;;10130747;28;20069;-68
2022/10/31 14:47:15;;;;;;;42.10;38.70;;;;;;;;;;10124103;28;20046;-68
2022/10/31 14:52:14;;;;;;;46.28;42.28;;;;;;;;;;10105060;28;20093;-68
2022/10/31 14:57:16;;;;;;;49.92;45.45;;;;;;;;;;10131476;28;20042;-68
2022/10/31 15:02:15;;;;;;;49.65;45.85;;;;;;;;;;10138306;28;20042;-68
2022/10/31 15:07:17;;;;;;;52.58;48.20;;;;;;;;;;10150525;28;20053;-68
2022/10/31 15:12:22;;;;;;;56.75;52.50;;;;;;;;;;10140656;28;20051;-68
2022/10/31 15:17:19;;;;;;;58.65;54.00;;;;;;;;;;10139419;28;20075;-68
2022/10/31 15:22:22;;;;;;;66.40;61.17;;;;;;;;;;10141666;28;20522;-68
2022/10/31 15:27:18;;;;;;;67.47;62.47;;;;;;;;;;10133017;28;20224;-68
2022/10/31 15:32:25;;;;;;;65.03;60.22;;;;;;;;;;10150099;28;20046;-67
2022/10/31 15:37:24;;;;;;;70.28;65.10;;;;;;;;;;10148052;28;20053;-68
2022/10/31 15:42:22;;;;;;;74.97;69.53;;;;;;;;;;10148562;28;20068;-68
2022/10/31 15:47:20;;;;;;;72.70;67.55;;;;;;;;;;10134555;28;20401;-68
2022/10/31 15:52:35;;;;;;;71.50;66.28;;;;;;;;;;10140269;28;20046;-68
2022/10/31 15:57:32;;;;;;;75.80;70.18;;;;;;;;;;10147832;28;20579;-68
2022/10/31 16:02:29;;;;;;;79.78;73.78;;;;;;;;;;10148798;28;20053;-68
2022/10/31 16:07:26;;;;;;;76.72;71.10;;;;;;;;;;10145556;28;20076;-68
2022/10/31 16:12:23;;;;;;;84.60;78.18;;;;;;;;;;10135341;28;20440;-68
2022/10/31 16:17:21;;;;;;;80.90;75.10;;;;;;;;;;10147994;28;20065;-69
2022/10/31 16:22:28;;;;;;;85.13;78.45;;;;;;;;;;10143973;28;20049;-68
2022/10/31 16:27:28;;;;;;;85.95;79.88;;;;;;;;;;10148115;28;20047;-67
2022/10/31 16:32:25;;;;;;;86.22;80.15;;;;;;;;;;10149990;28;20081;-67
2022/10/31 16:37:22;;;;;;;91.72;84.72;;;;;;;;;;10141825;28;20058;-67
2022/10/31 16:42:18;;;;;;;88.88;82.13;;;;;;;;;;10144003;28;20424;-67
2022/10/31 16:47:15;;;;;;;90.07;83.50;;;;;;;;;;10142290;28;20421;-68
2022/10/31 16:52:12;;;;;;;88.15;81.53;;;;;;;;;;10143770;28;20046;-68
2022/10/31 16:57:13;;;;;;;87.90;81.10;;;;;;;;;;10153703;28;20046;-69
2022/10/31 17:02:14;;;;;;;90.47;83.68;;;;;;;;;;10149289;28;20042;-68
2022/10/31 17:07:10;;;;;;;88.80;82.25;;;;;;;;;;10147554;28;20058;-68
2022/10/31 17:12:13;;;;;;;90.85;84.22;;;;;;;;;;10140662;28;20053;-68
2022/10/31 17:17:09;;;;;;;91.35;84.53;;;;;;;;;;10144645;28;20527;-69
2022/10/31 17:22:05;;;;;;;91.07;84.15;;;;;;;;;;10147311;28;20061;-69
2022/10/31 17:27:02;;;;;;;90.65;83.70;;;;;;;;;;10157012;28;20049;-69
2022/10/31 17:31:59;;;;;;;96.18;89.07;;;;;;;;;;10151683;28;20061;-68
2022/10/31 17:36:55;;;;;;;94.20;86.70;;;;;;;;;;10145237;28;20042;-68
2022/10/31 17:41:52;;;;;;;99.75;91.18;;;;;;;;;;10146562;28;20740;-68
2022/10/31 17:46:49;;;;;;;95.47;87.95;;;;;;;;;;10135169;28;20632;-68
2022/10/31 17:51:45;;;;;;;100.47;92.18;;;;;;;;;;10127373;28;20051;-68
2022/10/31 17:56:41;;;;;;;100.28;92.05;;;;;;;;;;10134144;28;20050;-67
2022/10/31 18:01:38;;;;;;;96.85;88.90;;;;;;;;;;10141315;28;20042;-68
2022/10/31 18:06:34;;;;;;;101.70;93.47;;;;;;;;;;10125489;28;20533;-68
2022/10/31 18:11:30;;;;;;;105.03;96.53;;;;;;;;;;10132613;28;20064;-67
2022/10/31 18:16:27;;;;;;;101.70;93.07;;;;;;;;;;10122205;28;20416;-67
2022/10/31 18:21:24;;;;;;;100.00;92.22;;;;;;;;;;10125603;28;20067;-67
2022/10/31 18:26:21;;;;;;;102.45;94.05;;;;;;;;;;10122886;28;20054;-67
2022/10/31 18:31:17;;;;;;;101.78;93.63;;;;;;;;;;10115879;28;20058;-67
2022/10/31 18:36:14;;;;;;;103.22;95.03;;;;;;;;;;10137336;28;20046;-67
2022/10/31 18:41:10;;;;;;;101.00;93.32;;;;;;;;;;10129124;28;20145;-68
2022/10/31 18:46:08;;;;;;;100.45;92.78;;;;;;;;;;10117516;28;20047;-67
2022/10/31 18:51:05;;;;;;;100.45;93.13;;;;;;;;;;10125452;28;20539;-68
2022/10/31 18:56:05;;;;;;;100.78;93.43;;;;;;;;;;10129729;28;20070;-67
2022/10/31 19:01:08;;;;;;;99.85;92.38;;;;;;;;;;10119674;28;20631;-68
2022/10/31 19:06:05;;;;;;;105.15;97.63;;;;;;;;;;10127818;28;20050;-69
2022/10/31 19:11:03;;;;;;;101.70;93.80;;;;;;;;;;10148501;28;20160;-68
2022/10/31 19:16:09;;;;;;;100.05;92.68;;;;;;;;;;10141411;28;20130;-68
2022/10/31 19:21:06;;;;;;;98.70;91.32;;;;;;;;;;10140102;28;20416;-68
2022/10/31 19:26:03;;;;;;;100.97;93.50;;;;;;;;;;10121237;28;20046;-68
2022/10/31 19:30:59;;;;;;;108.22;100.07;;;;;;;;;;10132674;28;20046;-68
2022/10/31 19:35:59;;;;;;;105.68;97.82;;;;;;;;;;10132796;28;20548;-68
2022/10/31 19:40:56;;;;;;;106.75;98.88;;;;;;;;;;10125491;28;20057;-68
2022/10/31 19:45:56;;;;;;;106.50;98.50;;;;;;;;;;10135356;28;20046;-68
2022/10/31 19:50:52;;;;;;;100.75;93.38;;;;;;;;;;10135971;28;20057;-69
2022/10/31 19:55:53;;;;;;;107.00;99.40;;;;;;;;;;10131445;28;20600;-68
2022/10/31 20:00:50;;;;;;;104.32;96.80;;;;;;;;;;10138391;28;20086;-69
2022/10/31 20:05:47;;;;;;;104.53;97.07;;;;;;;;;;10144095;28;20051;-69
2022/10/31 20:10:56;;;;;;;107.28;99.03;;;;;;;;;;10141689;28;20432;-68
2022/10/31 20:15:56;;;;;;;103.07;95.47;;;;;;;;;;10133663;28;20061;-68
2022/10/31 20:20:52;;;;;;;106.82;98.90;;;;;;;;;;10144545;28;20151;-68
2022/10/31 20:25:49;;;;;;;110.47;101.63;;;;;;;;;;10127152;28;20057;-68
2022/10/31 20:30:45;;;;;;;110.60;102.57;;;;;;;;;;10139036;28;20526;-69
2022/10/31 20:35:41;;;;;;;111.40;102.85;;;;;;;;;;10139461;28;20523;-69
2022/10/31 20:40:37;;;;;;;110.78;102.43;;;;;;;;;;10120007;28;20162;-68
2022/10/31 20:45:34;;;;;;;110.47;102.35;;;;;;;;;;10127805;28;20563;-69
2022/10/31 20:50:30;;;;;;;112.13;103.95;;;;;;;;;;10144978;28;20066;-69
2022/10/31 20:55:27;;;;;;;113.38;104.03;;;;;;;;;;10143632;28;20677;-69
2022/10/31 21:00:23;;;;;;;111.70;103.50;;;;;;;;;;10145477;28;20043;-68
2022/10/31 21:05:19;;;;;;;108.15;99.85;;;;;;;;;;10131273;28;20053;-68
2022/10/31 21:10:15;;;;;;;113.20;105.00;;;;;;;;;;10123081;28;20100;-68
2022/10/31 21:15:12;;;;;;;111.88;102.65;;;;;;;;;;10132794;28;20510;-69
2022/10/31 21:20:09;;;;;;;109.70;100.63;;;;;;;;;;10131145;28;20053;-69
2022/10/31 21:25:06;;;;;;;105.63;96.85;;;;;;;;;;10130382;28;20404;-69
2022/10/31 21:30:02;;;;;;;108.68;99.93;;;;;;;;;;10129008;28;20038;-69
2022/10/31 21:34:58;;;;;;;105.90;97.25;;;;;;;;;;10135648;28;20065;-69
2022/10/31 21:39:55;;;;;;;107.43;98.78;;;;;;;;;;10143829;28;20049;-68
2022/10/31 21:44:51;;;;;;;102.80;94.38;;;;;;;;;;10128716;28;20420;-68
2022/10/31 21:49:47;;;;;;;111.72;101.78;;;;;;;;;;10139670;28;20042;-68
2022/10/31 21:54:43;;;;;;;111.85;101.40;;;;;;;;;;10146118;28;20686;-68
2022/10/31 21:59:44;;;;;;;111.72;101.85;;;;;;;;;;10136239;28;20057;-68
2022/10/31 22:04:41;;;;;;;105.05;95.88;;;;;;;;;;10137560;28;20054;-67
2022/10/31 22:09:37;;;;;;;114.80;104.82;;;;;;;;;;10150846;28;20161;-69
2022/10/31 22:14:34;;;;;;;112.70;103.13;;;;;;;;;;10137962;28;20678;-69
2022/10/31 22:19:30;;;;;;;115.75;106.30;;;;;;;;;;10142173;28;20081;-69
2022/10/31 22:24:26;;;;;;;114.82;104.85;;;;;;;;;;10137397;28;20527;-69
2022/10/31 22:29:22;;;;;;;114.07;104.72;;;;;;;;;;10146220;28;20058;-69
2022/10/31 22:34:19;;;;;;;117.13;107.13;;;;;;;;;;10139071;28;20051;-69
2022/10/31 22:39:15;;;;;;;116.40;106.75;;;;;;;;;;10154624;28;20055;-68
2022/10/31 22:44:11;;;;;;;114.00;104.75;;;;;;;;;;10160620;28;20050;-69
2022/10/31 22:49:15;;;;;;;115.95;106.22;;;;;;;;;;10160194;28;20543;-69
2022/10/31 22:54:16;;;;;;;114.30;104.95;;;;;;;;;;10154874;28;20046;-68
2022/10/31 22:59:13;;;;;;;122.35;111.82;;;;;;;;;;10152458;28;20546;-68
2022/10/31 23:04:10;;;;;;;116.15;106.50;;;;;;;;;;10162376;28;20053;-69
2022/10/31 23:09:13;;;;;;;119.15;109.28;;;;;;;;;;10141185;28;20035;-68
2022/10/31 23:14:12;;;;;;;121.20;111.10;;;;;;;;;;10155340;28;20046;-68
2022/10/31 23:19:10;;;;;;;122.32;112.78;;;;;;;;;;10149683;28;20038;-69
2022/10/31 23:24:06;;;;;;;119.93;110.35;;;;;;;;;;10153840;28;20433;-68
2022/10/31 23:29:02;;;;;;;116.93;107.63;;;;;;;;;;10156907;28;20523;-69
2022/10/31 23:33:59;;;;;;;113.72;104.30;;;;;;;;;;10156046;28;20058;-68
2022/10/31 23:38:55;;;;;;;117.28;107.93;;;;;;;;;;10154238;28;20046;-69
2022/10/31 23:43:51;;;;;;;115.38;105.93;;;;;;;;;;10152520;28;20134;-69
2022/10/31 23:48:48;;;;;;;114.28;105.38;;;;;;;;;;10150022;28;20047;-68
2022/10/31 23:53:44;;;;;;;112.50;103.53;;;;;;;;;;10148193;28;20054;-68
2022/10/31 23:58:41;;;;;;;109.90;101.53;;;;;;;;;;10148264;28;20046;-69
